Tiempo atmosférico en la estación meteorológica de Bustillo del Páramo, León (850 m.)



Fecha
DESCASC
Temp. máxima en grados centígrados (hora)
DESCASC
Temp. mínima en grados centígrados (hora)
DESCASC
Temp. media en grados centígrados
DESCASC
Racha de viento máxima en m/sg (hora)
DESCASC
Velocidad máxima media en intervalos de 10 minutos(hora)
DESCASC
Precipitaciones diarias en mm
DESCASC
Precipitaciones de 00:00 a 06:00 en mm
DESCASC
Precipitaciones de 06:00 a 12:00 en mm
DESCASC
Precipitaciones de 12:00 a 18:00 en mm
DESCASC
Precipitaciones de 18:00 a 24:00 en mm
DESCASC
14-10-2019 13.7 (00:00) 5.7 (00:00) 9.7 13.89 (16:40) 8.06 (19:00) 11.6 0 7.4 4.2 0
21-09-2019 16.7 (00:00) 13.1 (00:00) 14.9 11.11 (23:20) 6.39 (22:10) 3 0 1.2 1 0.8
16-10-2019 13.6 (14:40) 8.6 (00:00) 11.1 11.11 (19:10) 7.22 (19:10) 5 0.6 0 0.2 4.2
03-10-2019 25.3 (17:10) 5.5 (00:00) 15.4 7.78 (23:00) 5.28 (19:00) 0 0 0 0 0
17-10-2019 19.8 (15:50) 10.8 (00:00) 15.3 8.89 (15:30) 5.83 (15:40) 7.2 7 0.2 0 0
15-10-2019 13.6 (15:20) 4.1 (00:00) 8.9 10.28 (17:30) 6.67 (17:40) 0 0 0 0 0
13-10-2019 20.3 (17:30) 11.6 (00:00) 15.9 11.11 (05:20) 6.94 (05:20) 0 0 0 0 0
12-10-2019 25.7 (16:20) 11.8 (00:00) 18.8 15.28 (17:40) 9.17 (17:40) 0 0 0 0 0
11-10-2019 26.5 (16:30) 4.8 (00:00) 15.7 10.56 (17:10) 6.11 (17:10) 0 0 0 0 0
10-10-2019 21.6 (17:50) 3.6 (00:00) 12.6 4.17 (13:40) 2.22 (06:10) 0 0 0 0 0
09-10-2019 20.8 (17:30) 7.7 (00:00) 14.2 9.17 (06:00) 5.83 (06:00) 0 0 0 0 0
08-10-2019 25.7 (16:10) 8.3 (00:00) 17 8.89 (18:00) 6.11 (17:30) 0 0 0 0 0
07-10-2019 27.5 (17:20) 6.4 (00:00) 17 4.17 (14:50) 2.78 (00:30) 0 0 0 0 0
06-10-2019 24.7 (17:30) 8.5 (00:00) 16.6 8.06 (02:20) 5.83 (01:40) 0 0 0 0 0
05-10-2019 24.2 (18:00) 7 (00:00) 15.6 9.17 (22:50) 5.83 (22:50) 0 0 0 0 0
04-10-2019 24 (17:10) 9.9 (00:00) 16.9 5.56 (16:20) 3.33 (13:50) 0 0 0 0 0
18-09-2019 24.6 (19:00) 11.7 (00:00) 18.2 5.83 (00:30) 2.78 (23:59) 9.8 9.8 0 0 0
02-10-2019 21.6 (18:30) 6 (00:00) 13.8 6.67 (13:50) 4.72 (10:40) 0 0 0 0 0
01-10-2019 21.2 (16:40) 12.1 (00:00) 16.7 12.5 (17:20) 8.61 (17:10) 0 0 0 0 0
30-09-2019 26 (17:20) 9.7 (00:00) 17.8 12.78 (19:00) 6.11 (19:00) 0 0 0 0 0
29-09-2019 26.4 (16:50) 5 (00:00) 15.7 11.67 (21:40) 6.11 (17:50) 0 0 0 0 0
28-09-2019 22.7 (18:10) 6.3 (00:00) 14.5 6.94 (00:10) 4.44 (00:10) 0 0 0 0 0
27-09-2019 21.6 (14:40) 8.9 (00:00) 15.3 11.67 (16:10) 8.06 (16:20) 0 0 0 0 0
26-09-2019 25.1 (17:40) 8.2 (00:00) 16.7 8.61 (18:00) 5.56 (18:00) 0 0 0 0 0
25-09-2019 20.6 (17:40) 9.4 (00:00) 15 8.33 (04:10) 5.56 (04:10) 0 0 0 0 0
24-09-2019 22.6 (16:10) 10.5 (00:00) 16.6 14.72 (18:20) 9.17 (19:10) 0 0 0 0 0
23-09-2019 20.1 (18:40) 7.5 (00:00) 13.8 5 (13:30) 2.5 (14:00) 0 0 0 0 0
22-09-2019 19.5 (17:20) 8.7 (00:00) 14.1 7.78 (17:30) 4.72 (17:30) 1 1 0 0 0
20-09-2019 25 (16:40) 11.2 (00:00) 18.1 7.22 (16:20) 4.44 (16:20) 0 0 0 0 0
19-09-2019 25.2 (16:40) 11.4 (00:00) 18.3 6.11 (16:00) 3.61 (00:10) 0 0 0 0 0

Gráficas

Temp. máximas Temp. mínimas Temp. medias Precipitaciones Rachas de viento máximas Velocidades máximas media en intervalos de 10 minutos

Datos horarios

Fecha y hora oficial Temperatura (ºC) Velocidad del viento (km/h) Dirección del viento Racha (km/h) Dirección de racha Precipitación (mm) Presión (hPa) Tendencia (hPa) Humedad (%)
2019-10-17 23:00:00 13 6 Sudoeste 12 Sur 0 -- -- 88
2019-10-17 22:00:00 12.6 8 Sur 13 Sudoeste 0 -- -- 86
2019-10-17 21:00:00 13.1 8 Sur 12 Sur 0 -- -- 79
2019-10-17 20:00:00 14.3 2 Norte 15 Noroeste 0 -- -- 68
2019-10-17 19:00:00 16.6 12 Oeste 24 Oeste 0 -- -- 57
2019-10-17 18:00:00 17.9 14 Noroeste 26 Oeste 0 -- -- 51
2019-10-17 17:00:00 18.6 15 Noroeste 27 Sudoeste 0 -- -- 52
2019-10-17 16:00:00 19.7 17 Sudoeste 32 Oeste 0 -- -- 51
2019-10-17 15:00:00 18.8 8 Oeste 22 Sudoeste 0 -- -- 51
2019-10-17 14:00:00 17.1 8 Sudoeste 22 Sudoeste 0 -- -- 62
2019-10-17 13:00:00 16 3 Oeste 9 Sudoeste 0 -- -- 74
2019-10-17 12:00:00 13.4 5 Oeste 17 Sudoeste 0 -- -- 92
2019-10-17 11:00:00 12.5 12 Sudoeste 19 Sur 0 -- -- 96
2019-10-17 10:00:00 11.7 7 Sudoeste 17 Sudoeste 0 -- -- 97
2019-10-17 09:00:00 11.2 10 Sudoeste 19 Sudoeste 0 -- -- 96
2019-10-17 08:00:00 11.2 7 Sudoeste 15 Sur 0 -- -- 96
2019-10-17 07:00:00 11.1 9 Sur 18 Sur 0.2 -- -- 96
2019-10-17 06:00:00 11 9 Sur 16 Sudeste 0 -- -- 96
2019-10-17 05:00:00 10.9 10 Sudeste 17 Sudeste 0 -- -- 96
2019-10-17 04:00:00 10.8 12 Sur 24 Sur 0.6 -- -- 96
2019-10-17 03:00:00 10.8 14 Sur 22 Sur 1.8 -- -- 96
2019-10-17 02:00:00 10.9 13 Sur 20 Sur 2.6 -- -- 95
2019-10-17 01:00:00 11 11 Sur 25 Sur 2 -- -- 95
2019-10-17 00:00:00 11.1 15 Sur 29 Sur 1.4 -- -- 94
2019-10-16 23:00:00 11.1 17 Sur 28 Sur 0.8 -- -- 94
2019-10-16 22:00:00 10.8 15 Sur 26 Sur 0.4 -- -- 93
2019-10-16 21:00:00 10.8 17 Sur 33 Sur 1.2 -- -- 92
2019-10-16 20:00:00 11.5 18 Sur 40 Sur 0.4 -- -- 87
2019-10-16 19:00:00 12.5 20 Sur 37 Sur 0 -- -- 80
2019-10-16 18:00:00 13 19 Sur 36 Sur 0 -- -- 76
2019-10-16 17:00:00 12.8 21 Sur 34 Sur 0 -- -- 77
2019-10-16 16:00:00 13.3 17 Sur 36 Sur 0 -- -- 76
2019-10-16 15:00:00 13.1 23 Sur 35 Sur 0.2 -- -- 77
2019-10-16 14:00:00 12.9 21 Sur 36 Sur 0 -- -- 76
2019-10-16 13:00:00 12.9 19 Sur 32 Sur 0 -- -- 77
2019-10-16 12:00:00 11.1 17 Sur 29 Sur 0 -- -- 87
2019-10-16 11:00:00 9.7 14 Sur 25 Sur 0 -- -- 93
2019-10-16 10:00:00 9.1 14 Sur 23 Sur 0 -- -- 94
2019-10-16 09:00:00 8.8 10 Sur 18 Sur 0 -- -- 94
2019-10-16 08:00:00 8.7 10 Sur 19 Sur 0 -- -- 94
2019-10-16 07:00:00 8.6 10 Sur 19 Sur 0 -- -- 94
2019-10-16 06:00:00 8.6 9 Sur 19 Sudoeste 0.6 -- -- 93
2019-10-16 05:00:00 8.7 12 Sur 21 Sur 0 -- -- 91
2019-10-16 04:00:00 8.9 11 Sur 21 Sudoeste 0 -- -- 89
2019-10-16 03:00:00 9.1 11 Sudoeste 21 Sudoeste 0 -- -- 88
2019-10-16 02:00:00 9.2 13 Sudoeste 27 Sudoeste 0 -- -- 89
2019-10-16 01:00:00 9.2 15 Sur 22 Sur 0 -- -- 90
2019-10-16 00:00:00 9.4 14 Sur 26 Sur 0 -- -- 89
2019-10-15 23:00:00 9.5 15 Sur 24 Sur 0 -- -- 88
2019-10-15 22:00:00 9.4 13 Sur 22 Sur 0 -- -- 89
2019-10-15 21:00:00 9.5 10 Sur 19 Sur 0 -- -- 87
2019-10-15 20:00:00 9.6 7 Sur 22 Sur 0 -- -- 85
2019-10-15 19:00:00 9.9 14 Sudoeste 32 Sudoeste 0 -- -- 82
2019-10-15 18:00:00 11 21 Sudoeste 37 Sudoeste 0 -- -- 74
2019-10-15 17:00:00 11.7 21 Sur 36 Sudoeste 0 -- -- 71
2019-10-15 16:00:00 13.2 17 Sur 26 Sudoeste 0 -- -- 62
2019-10-15 15:00:00 13.2 11 Sur 19 Sudoeste 0 -- -- 56
2019-10-15 14:00:00 11.9 7 Sudoeste 17 Sur 0 -- -- 59
2019-10-15 13:00:00 11.2 9 Sudoeste 19 Sudeste 0 -- -- 63
2019-10-15 12:00:00 9.3 5 Sudoeste 16 Este 0 -- -- 76
2019-10-15 11:00:00 8.5 5 Sudeste 11 Sudoeste 0 -- -- 82
2019-10-15 10:00:00 6 6 Sudoeste 13 Sudoeste 0 -- -- 93
2019-10-15 09:00:00 4.8 6 Sudoeste 10 Sudoeste 0 -- -- 92
2019-10-15 08:00:00 4.2 4 Sur 11 Sur 0 -- -- 90
2019-10-15 07:00:00 5 3 Sudoeste 12 Sur 0 -- -- 87
2019-10-15 06:00:00 5.2 4 Sur 14 Sudoeste 0 -- -- 88
2019-10-15 05:00:00 5.9 2 Sur 17 Sudoeste 0 -- -- 87
2019-10-15 04:00:00 5.6 6 Sudoeste 16 Sudoeste 0 -- -- 90
2019-10-15 03:00:00 4.4 5 Sudoeste 21 Oeste 0 -- -- 89
2019-10-15 02:00:00 5.5 17 Oeste 26 Oeste 0 -- -- 87
2019-10-15 01:00:00 5.8 9 Oeste 31 Oeste 0 -- -- 84
2019-10-15 00:00:00 6.7 20 Oeste 30 Noroeste 0 -- -- 79
2019-10-14 23:00:00 5.8 12 Sudoeste 17 Sudoeste 0 -- -- 85
2019-10-14 22:00:00 5.7 8 Oeste 18 Oeste 0 -- -- 86
2019-10-14 21:00:00 6.4 14 Oeste 36 Oeste 0 -- -- 83
2019-10-14 20:00:00 7.7 23 Oeste 40 Oeste 0 -- -- 78
2019-10-14 19:00:00 9.3 29 Oeste 41 Oeste 0 -- -- 73
2019-10-14 18:00:00 9.7 5 Oeste 17 Oeste 0 -- -- 83
2019-10-14 17:00:00 7 6 Noroeste 50 Oeste 2.8 -- -- 87
2019-10-14 16:00:00 11.2 18 Sur 27 Sur 0 -- -- 82
2019-10-14 15:00:00 10.1 14 Sur 29 Sur 0 -- -- 91
2019-10-14 14:00:00 10 13 Sur 37 Sudoeste 1.2 -- -- 90
2019-10-14 13:00:00 10.3 15 Sur 40 Sur 0.2 -- -- 87
2019-10-14 12:00:00 11.2 21 Sur 40 Sur 0 -- -- 80
2019-10-14 11:00:00 9.4 6 Sur 13 Sur 0.4 -- -- 94
2019-10-14 10:00:00 8.3 5 Nordeste 19 Noroeste 2.8 -- -- 92
2019-10-14 09:00:00 8.4 13 Oeste 25 Oeste 2.8 -- -- 91
2019-10-14 08:00:00 9.5 17 Oeste 31 Noroeste 0.8 -- -- 87
2019-10-14 07:00:00 12.1 3 Sudeste 10 Este 0.6 -- -- 82
2019-10-14 06:00:00 12.5 5 Este 8 Este 0 -- -- 79
2019-10-14 05:00:00 13 7 Este 18 Este 0 -- -- 74
2019-10-14 04:00:00 13 9 Este 18 Este 0 -- -- 74
2019-10-14 03:00:00 12.3 10 Este 14 Este 0 -- -- 79
2019-10-14 02:00:00 12.2 9 Este 14 Este 0 -- -- 78
2019-10-14 01:00:00 13 12 Sudeste 17 Sudeste 0 -- -- 74
2019-10-14 00:00:00 13.7 11 Sur 17 Sudeste 0 -- -- 69
2019-10-13 23:00:00 14.2 10 Sur 23 Sur 0 -- -- 68
2019-10-13 22:00:00 15.2 16 Sur 28 Sudeste 0 -- -- 64
2019-10-13 21:00:00 15.2 11 Sur 22 Sur 0 -- -- 64
2019-10-13 20:00:00 17.3 13 Sur 31 Sur 0 -- -- 55
2019-10-13 19:00:00 18.8 18 Sur 35 Sudeste 0 -- -- 54
2019-10-13 18:00:00 18.8 19 Sur 39 Sur 0 -- -- 58
2019-10-13 17:00:00 19.4 15 Sur 34 Sur 0 -- -- 57
2019-10-13 16:00:00 19.3 23 Sur 36 Sur 0 -- -- 58
2019-10-13 15:00:00 18.1 23 Sur 37 Sur 0 -- -- 62
2019-10-13 14:00:00 17.3 17 Sur 31 Sur 0 -- -- 65
2019-10-13 13:00:00 16.1 15 Sur 37 Sur 0 -- -- 71
2019-10-13 12:00:00 14.9 19 Sur 36 Sur 0 -- -- 74
2019-10-13 11:00:00 14 21 Sur 35 Sur 0 -- -- 77
2019-10-13 10:00:00 12.5 15 Sur 26 Sur 0 -- -- 84
2019-10-13 09:00:00 12.1 14 Sur 23 Sur 0 -- -- 85
2019-10-13 08:00:00 11.9 13 Sur 31 Sur 0 -- -- 83
2019-10-13 07:00:00 12.6 18 Sur 35 Sur 0 -- -- 82
2019-10-13 06:00:00 13.4 17 Sur 40 Sur 0 -- -- 80
2019-10-13 05:00:00 13.8 16 Sur 29 Sur 0 -- -- 84
2019-10-13 04:00:00 14.6 15 Sur 27 Sur 0 -- -- 82
2019-10-13 03:00:00 14.2 14 Sur 23 Sur 0 -- -- 85
2019-10-13 02:00:00 14.1 13 Sur 19 Sur 0 -- -- 84
2019-10-13 01:00:00 15.3 5 Sur 18 Sudoeste 0 -- -- 78
2019-10-13 00:00:00 16.3 9 Sur 15 Sur 0 -- -- 69
2019-10-12 23:00:00 17.9 4 Sur 20 Sur 0 -- -- 56
2019-10-12 22:00:00 18.5 11 Sur 21 Sur 0 -- -- 55
2019-10-12 21:00:00 20.9 8 Sur 31 Sur 0 -- -- 46
2019-10-12 20:00:00 21.9 19 Sur 35 Sur 0 -- -- 44
2019-10-12 19:00:00 23.6 20 Sur 47 Sudoeste 0 -- -- 39
2019-10-12 18:00:00 24.4 31 Sudoeste 55 Sudoeste 0 -- -- 35
2019-10-12 17:00:00 25 19 Sudoeste 41 Sudoeste 0 -- -- 37
2019-10-12 16:00:00 25.2 25 Sur 43 Sur 0 -- -- 37
2019-10-12 15:00:00 23.9 23 Sudoeste 43 Sudoeste 0 -- -- 44
2019-10-12 14:00:00 22.8 21 Sur 41 Sur 0 -- -- 49
2019-10-12 13:00:00 20.7 24 Sur 41 Sur 0 -- -- 57
2019-10-12 12:00:00 19.8 18 Sur 31 Sudoeste 0 -- -- 63
2019-10-12 11:00:00 17.5 10 Sur 18 Sudeste 0 -- -- 71
2019-10-12 10:00:00 14.5 6 Sur 14 Sur 0 -- -- 77
2019-10-12 09:00:00 14.2 10 Sur 19 Sudeste 0 -- -- 76
2019-10-12 08:00:00 14 6 Sur 15 Sur 0 -- -- 77
2019-10-12 07:00:00 13.2 4 Sur 13 Sudeste 0 -- -- 79
2019-10-12 06:00:00 13.8 8 Sudeste 10 Sudeste 0 -- -- 77
2019-10-12 05:00:00 14.4 8 Sudeste 11 Sudeste 0 -- -- 78
2019-10-12 04:00:00 14.3 7 Este 12 Sudeste 0 -- -- 78
2019-10-12 03:00:00 12.4 9 Este 11 Este 0 -- -- 84
2019-10-12 02:00:00 12.1 5 Norte 6 Norte 0 -- -- 80
2019-10-12 01:00:00 13.3 3 Sudeste 5 Sudeste 0 -- -- 74
2019-10-12 00:00:00 13.8 0 Calma 3 Sudoeste 0 -- -- 73
2019-10-11 23:00:00 14.6 0 Calma 13 Sur 0 -- -- 71
2019-10-11 22:00:00 15.6 0 Calma 4 Sudoeste 0 -- -- 66
2019-10-11 21:00:00 17.6 3 Sudoeste -- -- 0 -- -- 59
2019-10-11 20:00:00 21.2 5 Sudoeste 18 Sudoeste 0 -- -- 46
2019-10-11 19:00:00 24.4 11 Sudoeste 29 Sudoeste 0 -- -- 39
2019-10-11 18:00:00 25.5 17 Sudoeste 38 Sudoeste 0 -- -- 36
2019-10-11 17:00:00 26.3 21 Sudoeste 36 Sudoeste 0 -- -- 35
2019-10-11 16:00:00 25.6 13 Sur 26 Sur 0 -- -- 35
2019-10-11 15:00:00 24.1 12 Sur 21 Sudeste 0 -- -- 35
2019-10-11 14:00:00 22.3 10 Sudeste 17 Sudeste 0 -- -- 37
2019-10-11 13:00:00 19.7 6 Sudeste 12 Sudeste 0 -- -- 43
2019-10-11 12:00:00 17.4 4 Sudeste 12 Sudeste 0 -- -- 48
2019-10-11 11:00:00 14.1 0 Calma 5 Noroeste 0 -- -- 64
2019-10-11 10:00:00 8.3 2 Noroeste 5 Noroeste 0 -- -- 86
2019-10-11 09:00:00 4.9 3 Noroeste 8 Noroeste 0 -- -- 90
2019-10-11 08:00:00 5.1 3 Norte 6 Noroeste 0 -- -- 88
2019-10-11 07:00:00 5.5 5 Noroeste 8 Noroeste 0 -- -- 87
2019-10-11 06:00:00 5.9 5 Noroeste 8 Noroeste 0 -- -- 86
2019-10-11 05:00:00 6.3 6 Noroeste 9 Noroeste 0 -- -- 85
2019-10-11 04:00:00 6.3 6 Noroeste 9 Noroeste 0 -- -- 85
2019-10-11 03:00:00 6.4 4 Noroeste 8 Norte 0 -- -- 84
2019-10-11 02:00:00 7.2 3 Norte 8 Noroeste 0 -- -- 82
2019-10-11 01:00:00 7.6 5 Noroeste 8 Norte 0 -- -- 81
2019-10-11 00:00:00 8.4 5 Norte 10 Norte 0 -- -- 79
2019-10-10 23:00:00 9.4 6 Norte 9 Noroeste 0 -- -- 77
2019-10-10 22:00:00 11.4 3 Sudeste -- -- 0 -- -- 71
2019-10-10 21:00:00 13.6 0 Calma 5 Sudeste 0 -- -- 64
2019-10-10 20:00:00 18.2 4 Sudeste 6 Sudeste 0 -- -- 46
2019-10-10 19:00:00 21.1 3 Sudeste 8 Este 0 -- -- 38
2019-10-10 18:00:00 21.5 7 Sudeste 12 Sur 0 -- -- 35
2019-10-10 17:00:00 21.5 3 Este 14 Este 0 -- -- 32
2019-10-10 16:00:00 20.9 3 Sur 11 Nordeste 0 -- -- 33
2019-10-10 15:00:00 19.6 3 Oeste 12 Sudeste 0 -- -- 39
2019-10-10 14:00:00 18.1 5 Sur 15 Sudeste 0 -- -- 47
2019-10-10 13:00:00 16.4 4 Este 10 Este 0 -- -- 53
2019-10-10 12:00:00 14.3 4 Este 9 Sudeste 0 -- -- 62
2019-10-10 11:00:00 11.5 4 Norte 7 Norte 0 -- -- 73
2019-10-10 10:00:00 7.5 0 Calma 6 Norte 0 -- -- 90
2019-10-10 09:00:00 3.9 4 Norte 8 Noroeste 0 -- -- 92
2019-10-10 08:00:00 3.9 4 Noroeste 9 Noroeste 0 -- -- 91
2019-10-10 07:00:00 4.1 5 Noroeste 12 Noroeste 0 -- -- 91
2019-10-10 06:00:00 4.4 6 Noroeste 9 Noroeste 0 -- -- 90
2019-10-10 05:00:00 4.9 4 Noroeste 8 Norte 0 -- -- 89
2019-10-10 04:00:00 5.5 4 Norte 8 Noroeste 0 -- -- 88
2019-10-10 03:00:00 6.1 4 Norte 9 Noroeste 0 -- -- 87
2019-10-10 02:00:00 6.9 2 Norte 9 Noroeste 0 -- -- 84
2019-10-10 01:00:00 8.2 3 Nordeste 6 Norte 0 -- -- 81
2019-10-10 00:00:00 8.9 4 Nordeste 9 Noroeste 0 -- -- 78
2019-10-09 23:00:00 10.1 4 Norte 16 Nordeste 0 -- -- 74
2019-10-09 22:00:00 11.4 7 Norte 13 Noroeste 0 -- -- 67
2019-10-09 21:00:00 13.4 10 Noroeste 17 Noroeste 0 -- -- 58
2019-10-09 20:00:00 16 10 Noroeste 19 Noroeste 0 -- -- 49
2019-10-09 19:00:00 19.4 11 Noroeste 17 Noroeste 0 -- -- 40
2019-10-09 18:00:00 20.5 9 Oeste 17 Noroeste 0 -- -- 37
2019-10-09 17:00:00 20.7 8 Noroeste 15 Oeste 0 -- -- 35
2019-10-09 16:00:00 19.8 5 Noroeste 18 Oeste 0 -- -- 33
2019-10-09 15:00:00 18.9 5 Oeste 13 Noroeste 0 -- -- 31
2019-10-09 14:00:00 18 5 Noroeste 17 Norte 0 -- -- 37
2019-10-09 13:00:00 16.3 8 Norte 20 Noroeste 0 -- -- 42
2019-10-09 12:00:00 14.3 13 Noroeste 24 Oeste 0 -- -- 52
2019-10-09 11:00:00 12.2 17 Noroeste 24 Noroeste 0 -- -- 61
2019-10-09 10:00:00 9.9 15 Noroeste 26 Noroeste 0 -- -- 74
2019-10-09 09:00:00 7.8 16 Noroeste 24 Noroeste 0 -- -- 84
2019-10-09 08:00:00 7.9 16 Noroeste 21 Noroeste 0 -- -- 87
2019-10-09 07:00:00 8.5 10 Noroeste 29 Oeste 0 -- -- 87
2019-10-09 06:00:00 9.5 21 Oeste 33 Oeste 0 -- -- 86
2019-10-09 05:00:00 10.6 16 Noroeste 28 Noroeste 0 -- -- 87
2019-10-09 04:00:00 11.2 15 Noroeste 22 Oeste 0 -- -- 87
2019-10-09 03:00:00 11.8 16 Noroeste 27 Noroeste 0 -- -- 86
2019-10-09 02:00:00 12.9 10 Noroeste 15 Noroeste 0 -- -- 84
2019-10-09 01:00:00 14.4 11 Noroeste 30 Oeste 0 -- -- 81
2019-10-09 00:00:00 15.7 20 Noroeste 29 Noroeste 0 -- -- 79
2019-10-08 23:00:00 16.3 13 Noroeste 23 Noroeste 0 -- -- 80
2019-10-08 22:00:00 17.3 13 Oeste 24 Noroeste 0 -- -- 77
2019-10-08 21:00:00 18.3 8 Noroeste 21 Noroeste 0 -- -- 72
2019-10-08 20:00:00 20.4 15 Oeste 30 Oeste 0 -- -- 62
2019-10-08 19:00:00 23 14 Noroeste 31 Noroeste 0 -- -- 51
2019-10-08 18:00:00 24.2 22 Noroeste 32 Noroeste 0 -- -- 46
2019-10-08 17:00:00 24.9 20 Noroeste 30 Noroeste 0 -- -- 47
2019-10-08 16:00:00 25.5 5 Noroeste 22 Oeste 0 -- -- 46
2019-10-08 15:00:00 24.7 5 Oeste 18 Noroeste 0 -- -- 47
2019-10-08 14:00:00 23.4 10 Oeste 23 Noroeste 0 -- -- 48
2019-10-08 13:00:00 22.8 4 Noroeste 11 Oeste 0 -- -- 47
2019-10-08 12:00:00 20.3 2 Noroeste 9 Oeste 0 -- -- 51
2019-10-08 11:00:00 17.1 6 Noroeste 12 Noroeste 0 -- -- 58
2019-10-08 10:00:00 12.4 5 Noroeste 9 Noroeste 0 -- -- 76
2019-10-08 09:00:00 8.6 4 Norte 10 Noroeste 0 -- -- 87
2019-10-08 08:00:00 8.4 4 Norte 8 Norte 0 -- -- 86
2019-10-08 07:00:00 9 7 Noroeste 11 Noroeste 0 -- -- 84
2019-10-08 06:00:00 9 6 Noroeste 10 Noroeste 0 -- -- 84
2019-10-08 05:00:00 9.4 6 Noroeste 9 Norte 0 -- -- 82
2019-10-08 04:00:00 9.8 6 Norte 10 Norte 0 -- -- 82
2019-10-08 03:00:00 10.4 6 Noroeste 9 Noroeste 0 -- -- 79
2019-10-08 02:00:00 11.9 4 Norte 9 Norte 0 -- -- 75
2019-10-08 01:00:00 13.3 8 Norte 12 Norte 0 -- -- 69
2019-10-08 00:00:00 14.2 8 Noroeste 13 Norte 0 -- -- 65
2019-10-07 23:00:00 14.1 9 Norte 11 Noroeste 0 -- -- 68
2019-10-07 22:00:00 15.7 5 Noroeste 8 Noroeste 0 -- -- 62
2019-10-07 21:00:00 19.4 0 Calma 6 Sur 0 -- -- 46
2019-10-07 20:00:00 23.2 6 Oeste 14 Oeste 0 -- -- 34
2019-10-07 19:00:00 25.6 9 Sudeste 13 Sur 0 -- -- 33
2019-10-07 18:00:00 27.4 7 Sur 14 Sudeste 0 -- -- 29
2019-10-07 17:00:00 27.2 3 Sur 12 Sur 0 -- -- 29
2019-10-07 16:00:00 25.9 6 Oeste 14 Sur 0 -- -- 29
2019-10-07 15:00:00 24.7 5 Sur 15 Sur 0 -- -- 31
2019-10-07 14:00:00 22.6 4 Sur 10 Sur 0 -- -- 34
2019-10-07 13:00:00 20 5 Sudoeste 10 Oeste 0 -- -- 40
2019-10-07 12:00:00 17.1 3 Sudoeste 8 Sudoeste 0 -- -- 59
2019-10-07 11:00:00 13.7 2 Sudoeste 6 Noroeste 0 -- -- 76
2019-10-07 10:00:00 10.1 2 Noroeste 5 Norte 0 -- -- 85
2019-10-07 09:00:00 6.5 4 Norte 6 Noroeste 0 -- -- 89
2019-10-07 08:00:00 6.8 3 Noroeste 6 Noroeste 0 -- -- 88
2019-10-07 07:00:00 7.5 2 Noroeste 4 Norte 0 -- -- 89
2019-10-07 06:00:00 8.3 2 Sudoeste 8 Noroeste 0 -- -- 90
2019-10-07 05:00:00 9.4 2 Sudeste 7 Este 0 -- -- 87
2019-10-07 04:00:00 9.8 5 Nordeste 8 Nordeste 0 -- -- 87
2019-10-07 03:00:00 11 2 Nordeste 4 Norte 0 -- -- 73
2019-10-07 02:00:00 12.1 0 Calma 11 Norte 0 -- -- 69
2019-10-07 01:00:00 11.6 4 Norte 12 Norte 0 -- -- 71
2019-10-07 00:00:00 12.7 6 Noroeste 16 Noroeste 0 -- -- 65
2019-10-06 23:00:00 14.1 9 Noroeste 14 Noroeste 0 -- -- 60
2019-10-06 22:00:00 16.7 10 Noroeste 17 Noroeste 0 -- -- 52
2019-10-06 21:00:00 17 10 Oeste 15 Oeste 0 -- -- 56
2019-10-06 20:00:00 19.9 11 Oeste 23 Noroeste 0 -- -- 42
2019-10-06 19:00:00 22.9 17 Oeste 25 Noroeste 0 -- -- 32
2019-10-06 18:00:00 24.2 15 Oeste 26 Noroeste 0 -- -- 28
2019-10-06 17:00:00 24.2 13 Sudoeste 21 Oeste 0 -- -- 33
2019-10-06 16:00:00 23.5 8 Sudoeste 15 Sur 0 -- -- 39
2019-10-06 15:00:00 22.1 3 Oeste 18 Sudoeste 0 -- -- 45
2019-10-06 14:00:00 21.1 4 Sudoeste 16 Sudoeste 0 -- -- 50
2019-10-06 13:00:00 20 6 Oeste 15 Oeste 0 -- -- 56
2019-10-06 12:00:00 17.8 8 Noroeste 17 Noroeste 0 -- -- 65
2019-10-06 11:00:00 14.6 9 Noroeste 16 Noroeste 0 -- -- 78
2019-10-06 10:00:00 11 6 Noroeste 10 Noroeste 0 -- -- 89
2019-10-06 09:00:00 9 7 Noroeste 13 Norte 0 -- -- 91
2019-10-06 08:00:00 8.5 8 Noroeste 12 Norte 0 -- -- 91
2019-10-06 07:00:00 8.9 5 Noroeste 11 Noroeste 0 -- -- 90
2019-10-06 06:00:00 9 2 Este 10 Noroeste 0 -- -- 88
2019-10-06 05:00:00 10.4 8 Noroeste 20 Noroeste 0 -- -- 86
2019-10-06 04:00:00 11.2 14 Noroeste 23 Noroeste 0 -- -- 84
2019-10-06 03:00:00 12.5 10 Noroeste 29 Noroeste 0 -- -- 78
2019-10-06 02:00:00 12.8 18 Noroeste 28 Noroeste 0 -- -- 77
2019-10-06 01:00:00 13 12 Noroeste 23 Noroeste 0 -- -- 74
2019-10-06 00:00:00 13.8 10 Noroeste 26 Oeste 0 -- -- 67
2019-10-05 23:00:00 15.5 16 Noroeste 33 Noroeste 0 -- -- 58
2019-10-05 22:00:00 16.4 12 Noroeste 21 Oeste 0 -- -- 59
2019-10-05 21:00:00 16.8 6 Noroeste 15 Noroeste 0 -- -- 60
2019-10-05 20:00:00 19.7 10 Oeste 19 Noroeste 0 -- -- 44
2019-10-05 19:00:00 23.5 4 Oeste 12 Sur 0 -- -- 45
2019-10-05 18:00:00 24.2 6 Sur 14 Sur 0 -- -- 44
2019-10-05 17:00:00 23.4 5 Oeste 14 Sudoeste 0 -- -- 44
2019-10-05 16:00:00 22.4 5 Sudoeste 14 Sudoeste 0 -- -- 48
2019-10-05 15:00:00 21.1 7 Sur 13 Sudoeste 0 -- -- 56
2019-10-05 14:00:00 18.8 5 Sur 12 Sudoeste 0 -- -- 64
2019-10-05 13:00:00 16.5 3 Sur 12 Sudoeste 0 -- -- 73
2019-10-05 12:00:00 14.4 4 Sur 9 Sur 0 -- -- 81
2019-10-05 11:00:00 13 5 Sudoeste 8 Sudoeste 0 -- -- 86
2019-10-05 10:00:00 10.4 5 Noroeste 8 Noroeste 0 -- -- 93
2019-10-05 09:00:00 7.3 6 Noroeste 9 Noroeste 0 -- -- 94
2019-10-05 08:00:00 7 6 Noroeste 9 Noroeste 0 -- -- 93
2019-10-05 07:00:00 7.3 4 Noroeste 7 Noroeste 0 -- -- 93
2019-10-05 06:00:00 7.9 5 Noroeste 6 Noroeste 0 -- -- 92
2019-10-05 05:00:00 8.4 4 Noroeste 6 Noroeste 0 -- -- 92
2019-10-05 04:00:00 9 4 Noroeste 6 Norte 0 -- -- 90
2019-10-05 03:00:00 10 5 Norte 8 Norte 0 -- -- 88
2019-10-05 02:00:00 11.6 5 Nordeste 13 Noroeste 0 -- -- 86
2019-10-05 01:00:00 12.5 9 Noroeste 13 Noroeste 0 -- -- 84
2019-10-05 00:00:00 13.4 8 Noroeste 14 Noroeste 0 -- -- 81
2019-10-04 23:00:00 14.1 9 Noroeste 13 Noroeste 0 -- -- 78
2019-10-04 22:00:00 14.9 8 Noroeste 13 Noroeste 0 -- -- 75
2019-10-04 21:00:00 17.2 5 Noroeste 17 Noroeste 0 -- -- 67
2019-10-04 20:00:00 20.5 5 Oeste 14 Oeste 0 -- -- 55
2019-10-04 19:00:00 23.1 7 Sudeste 15 Sudeste 0 -- -- 48
2019-10-04 18:00:00 23.8 8 Sur 17 Sur 0 -- -- 46
2019-10-04 17:00:00 23.9 6 Sur 20 Sudoeste 0 -- -- 47
2019-10-04 16:00:00 23.5 5 Sur 19 Sur 0 -- -- 46
2019-10-04 15:00:00 22.9 8 Sur 19 Sudoeste 0 -- -- 47
2019-10-04 14:00:00 21.7 7 Sudoeste 19 Oeste 0 -- -- 50
2019-10-04 13:00:00 20.3 6 Oeste 15 Oeste 0 -- -- 57
2019-10-04 12:00:00 18.3 5 Noroeste 10 Oeste 0 -- -- 71
2019-10-04 11:00:00 15.7 0 Calma 8 Norte 0 -- -- 89
2019-10-04 10:00:00 14 5 Noroeste 11 Norte 0 -- -- 95
2019-10-04 09:00:00 10.1 5 Norte 10 Norte 0 -- -- 94
2019-10-04 08:00:00 10.7 5 Noroeste 13 Noroeste 0 -- -- 92
2019-10-04 07:00:00 12.7 11 Noroeste 17 Noroeste 0 -- -- 95
2019-10-04 06:00:00 10.1 7 Norte 10 Norte 0 -- -- 93
2019-10-04 05:00:00 11 3 Noroeste 12 Noroeste 0 -- -- 91
2019-10-04 04:00:00 12.1 8 Noroeste 14 Noroeste 0 -- -- 93
2019-10-04 03:00:00 12.7 5 Noroeste 15 Noroeste 0 -- -- 90
2019-10-04 02:00:00 13 8 Noroeste 12 Noroeste 0 -- -- 89
2019-10-04 01:00:00 13.6 5 Noroeste 10 Noroeste 0 -- -- 86
2019-10-04 00:00:00 14.9 5 Noroeste 27 Oeste 0 -- -- 80
2019-10-03 23:00:00 16 16 Oeste 28 Oeste 0 -- -- 77
2019-10-03 22:00:00 16.1 11 Noroeste 19 Noroeste 0 -- -- 75
2019-10-03 21:00:00 17.8 12 Noroeste 22 Oeste 0 -- -- 65
2019-10-03 20:00:00 20.2 9 Oeste 27 Noroeste 0 -- -- 49
2019-10-03 19:00:00 23 19 Oeste 27 Oeste 0 -- -- 38
2019-10-03 18:00:00 24.7 16 Oeste 25 Oeste 0 -- -- 31
2019-10-03 17:00:00 25.2 9 Oeste 27 Oeste 0 -- -- 27
2019-10-03 16:00:00 24.3 8 Sudoeste 19 Sudoeste 0 -- -- 26
2019-10-03 15:00:00 22.4 7 Sudoeste 19 Sudoeste 0 -- -- 35
2019-10-03 14:00:00 20.2 6 Sudoeste 15 Sudoeste 0 -- -- 46
2019-10-03 13:00:00 17.3 0 Calma 0 Calma 0 -- -- 58
2019-10-03 12:00:00 15 0 Calma 0 Calma 0 -- -- 69
2019-10-03 11:00:00 12.8 0 Calma 2 Sudeste 0 -- -- 82
2019-10-03 10:00:00 8.9 0 Calma 7 Noroeste 0 -- -- 95
2019-10-03 09:00:00 5.7 3 Norte 8 Noroeste 0 -- -- 94
2019-10-03 08:00:00 5.6 4 Norte 6 Noroeste 0 -- -- 93
2019-10-03 07:00:00 6 4 Noroeste 5 Noroeste 0 -- -- 93
2019-10-03 06:00:00 6.4 5 Noroeste 6 Noroeste 0 -- -- 92
2019-10-03 05:00:00 6.8 4 Noroeste 7 Noroeste 0 -- -- 92
2019-10-03 04:00:00 7.2 5 Noroeste 6 Noroeste 0 -- -- 91
2019-10-03 03:00:00 7.7 3 Norte 5 Noroeste 0 -- -- 89
2019-10-03 02:00:00 8.3 3 Noroeste 5 Norte 0 -- -- 87
2019-10-03 01:00:00 10 0 Calma 11 Nordeste 0 -- -- 81
2019-10-03 00:00:00 10.5 10 Nordeste 13 Este 0 -- -- 80
2019-10-02 23:00:00 10.5 0 Calma 0 Calma 0 -- -- 80
2019-10-02 22:00:00 11.7 0 Calma 6 Noroeste 0 -- -- 75
2019-10-02 21:00:00 13.7 4 Este 11 Este 0 -- -- 68
2019-10-02 20:00:00 18.6 4 Sudeste 5 Sudeste 0 -- -- 48
2019-10-02 19:00:00 21 3 Sudeste 8 Sudeste 0 -- -- 39
2019-10-02 18:00:00 21.3 3 Oeste 14 Sudoeste 0 -- -- 38
2019-10-02 17:00:00 20.7 2 Sudeste 15 Este 0 -- -- 41
2019-10-02 16:00:00 20.2 4 Este 22 Este 0 -- -- 43
2019-10-02 15:00:00 19.3 5 Sudoeste 23 Oeste 0 -- -- 46
2019-10-02 14:00:00 18.2 9 Noroeste 24 Oeste 0 -- -- 48
2019-10-02 13:00:00 16.8 7 Noroeste 17 Noroeste 0 -- -- 51
2019-10-02 12:00:00 15.6 12 Oeste 22 Oeste 0 -- -- 56
2019-10-02 11:00:00 13.4 14 Noroeste 23 Oeste 0 -- -- 67
2019-10-02 10:00:00 10.2 11 Oeste 18 Noroeste 0 -- -- 83
2019-10-02 09:00:00 6.6 8 Oeste 10 Oeste 0 -- -- 92
2019-10-02 08:00:00 6.2 7 Oeste 9 Noroeste 0 -- -- 90
2019-10-02 07:00:00 7.4 8 Noroeste 13 Noroeste 0 -- -- 87
2019-10-02 06:00:00 8 4 Noroeste 22 Oeste 0 -- -- 86
2019-10-02 05:00:00 8.9 13 Oeste 18 Oeste 0 -- -- 87
2019-10-02 04:00:00 9.5 12 Oeste 18 Oeste 0 -- -- 86
2019-10-02 03:00:00 10.2 11 Oeste 20 Oeste 0 -- -- 81
2019-10-02 02:00:00 10.6 13 Oeste 21 Oeste 0 -- -- 80
2019-10-02 01:00:00 11.4 7 Oeste 19 Oeste 0 -- -- 76
2019-10-02 00:00:00 12.1 6 Oeste 26 Oeste 0 -- -- 73
2019-10-01 23:00:00 12.8 12 Oeste 22 Oeste 0 -- -- 70
2019-10-01 22:00:00 14.1 9 Oeste 25 Oeste 0 -- -- 65
2019-10-01 21:00:00 15.6 20 Oeste 31 Oeste 0 -- -- 61
2019-10-01 20:00:00 17.3 13 Oeste 28 Oeste 0 -- -- 54
2019-10-01 19:00:00 19.5 19 Oeste 38 Oeste 0 -- -- 48
2019-10-01 18:00:00 20.5 22 Oeste 45 Oeste 0 -- -- 46
2019-10-01 17:00:00 20.9 27 Oeste 41 Oeste 0 -- -- 42
2019-10-01 16:00:00 20.7 26 Oeste 40 Oeste 0 -- -- 45
2019-10-01 15:00:00 20.1 29 Oeste 42 Oeste 0 -- -- 47
2019-10-01 14:00:00 19.6 19 Oeste 38 Oeste 0 -- -- 51
2019-10-01 13:00:00 19.2 24 Oeste 42 Oeste 0 -- -- 55
2019-10-01 12:00:00 17.1 25 Oeste 40 Noroeste 0 -- -- 70
2019-10-01 11:00:00 15.3 18 Oeste 29 Oeste 0 -- -- 79
2019-10-01 10:00:00 14 8 Noroeste 10 Noroeste 0 -- -- 86
2019-10-01 09:00:00 12.6 5 Oeste 26 Noroeste 0 -- -- 88
2019-10-01 08:00:00 12.8 15 Noroeste 29 Noroeste 0 -- -- 87
2019-10-01 07:00:00 12.8 14 Noroeste 24 Noroeste 0 -- -- 89
2019-10-01 06:00:00 13.5 15 Noroeste 23 Oeste 0 -- -- 90
2019-10-01 05:00:00 12.4 9 Oeste 16 Noroeste 0 -- -- 92
2019-10-01 04:00:00 12.4 7 Noroeste 9 Noroeste 0 -- -- 90
2019-10-01 03:00:00 13.2 6 Norte 12 Noroeste 0 -- -- 89
2019-10-01 02:00:00 13.2 3 Noroeste 12 Noroeste 0 -- -- 89
2019-10-01 01:00:00 13.4 8 Noroeste 11 Noroeste 0 -- -- 86
2019-10-01 00:00:00 14.6 9 Noroeste 15 Noroeste 0 -- -- 83
2019-09-30 23:00:00 16 9 Oeste 13 Oeste 0 -- -- 78
2019-09-30 22:00:00 17.5 7 Oeste 10 Oeste 0 -- -- 77
2019-09-30 21:00:00 19.2 5 Oeste 10 Oeste 0 -- -- 74
2019-09-30 20:00:00 21.1 9 Noroeste 33 Noroeste 0 -- -- 61
2019-09-30 19:00:00 24.1 22 Oeste 46 Oeste 0 -- -- 51
2019-09-30 18:00:00 24.6 8 Este 19 Sudeste 0 -- -- 51
2019-09-30 17:00:00 25.9 10 Sudeste 19 Sur 0 -- -- 46
2019-09-30 16:00:00 24.8 8 Sur 18 Este 0 -- -- 50
2019-09-30 15:00:00 23.3 7 Sudeste 18 Este 0 -- -- 55
2019-09-30 14:00:00 21.9 5 Sudeste 14 Sudeste 0 -- -- 60
2019-09-30 13:00:00 20.4 5 Sudeste 15 Sudeste 0 -- -- 67
2019-09-30 12:00:00 18.2 4 Este 10 Norte 0 -- -- 78
2019-09-30 11:00:00 15.6 5 Norte 10 Norte 0 -- -- 93
2019-09-30 10:00:00 13.2 0 Calma 3 Sudeste 0 -- -- 96
2019-09-30 09:00:00 11.6 0 Calma 3 Este 0 -- -- 95
2019-09-30 08:00:00 10.4 3 Este 6 Sudoeste 0 -- -- 94
2019-09-30 07:00:00 10.1 0 Calma 9 Noroeste 0 -- -- 92
2019-09-30 06:00:00 11.2 6 Norte 13 Norte 0 -- -- 91
2019-09-30 05:00:00 13.6 10 Oeste 22 Oeste 0 -- -- 91
2019-09-30 04:00:00 14.2 14 Noroeste 24 Oeste 0 -- -- 90
2019-09-30 03:00:00 14.6 14 Oeste 27 Oeste 0 -- -- 90
2019-09-30 02:00:00 14 8 Noroeste 14 Noroeste 0 -- -- 90
2019-09-30 01:00:00 14.7 8 Oeste 20 Oeste 0 -- -- 88
2019-09-30 00:00:00 15 10 Oeste 19 Oeste 0 -- -- 86
2019-09-29 23:00:00 15.7 11 Noroeste 32 Oeste 0 -- -- 80
2019-09-29 22:00:00 17 16 Oeste 42 Noroeste 0 -- -- 79
2019-09-29 21:00:00 18.2 18 Noroeste 35 Oeste 0 -- -- 78
2019-09-29 20:00:00 20.7 14 Noroeste 25 Noroeste 0 -- -- 64
2019-09-29 19:00:00 24.1 15 Noroeste 31 Noroeste 0 -- -- 49
2019-09-29 18:00:00 25.1 22 Oeste 34 Oeste 0 -- -- 45
2019-09-29 17:00:00 26.2 14 Oeste 27 Oeste 0 -- -- 39
2019-09-29 16:00:00 25.7 6 Sur 20 Sudoeste 0 -- -- 34
2019-09-29 15:00:00 24.6 8 Sudeste 20 Sur 0 -- -- 32
2019-09-29 14:00:00 23.3 9 Sur 17 Sudeste 0 -- -- 33
2019-09-29 13:00:00 21.1 8 Sudeste 12 Sudeste 0 -- -- 39
2019-09-29 12:00:00 18.3 6 Sudeste 11 Sudeste 0 -- -- 51
2019-09-29 11:00:00 15.3 2 Este 6 Sudoeste 0 -- -- 57
2019-09-29 10:00:00 11.1 3 Oeste 9 Noroeste 0 -- -- 80
2019-09-29 09:00:00 5.8 6 Noroeste 9 Noroeste 0 -- -- 91
2019-09-29 08:00:00 5.1 4 Norte 6 Noroeste 0 -- -- 90
2019-09-29 07:00:00 5.8 2 Noroeste 5 Noroeste 0 -- -- 88
2019-09-29 06:00:00 6.2 6 Noroeste 12 Noroeste 0 -- -- 88
2019-09-29 05:00:00 6.1 5 Noroeste 7 Noroeste 0 -- -- 87
2019-09-29 04:00:00 7.1 2 Noroeste 10 Norte 0 -- -- 85
2019-09-29 03:00:00 7.7 5 Norte 12 Noroeste 0 -- -- 84
2019-09-29 02:00:00 8.6 8 Noroeste 12 Noroeste 0 -- -- 84
2019-09-29 01:00:00 9.7 7 Noroeste 16 Noroeste 0 -- -- 82
2019-09-29 00:00:00 10 9 Noroeste 14 Noroeste 0 -- -- 83
2019-09-28 23:00:00 11.7 8 Norte 16 Noroeste 0 -- -- 78
2019-09-28 22:00:00 14.1 6 Nordeste 10 Nordeste 0 -- -- 68
2019-09-28 21:00:00 16.2 5 Nordeste 8 Nordeste 0 -- -- 65
2019-09-28 20:00:00 20.3 4 Nordeste 11 Este 0 -- -- 51
2019-09-28 19:00:00 22.5 4 Este 9 Este 0 -- -- 44
2019-09-28 18:00:00 22.6 3 Norte 15 Sur 0 -- -- 37
2019-09-28 17:00:00 21.9 7 Sudoeste 16 Oeste 0 -- -- 38
2019-09-28 16:00:00 20.9 9 Sur 17 Sur 0 -- -- 42
2019-09-28 15:00:00 20.1 6 Sur 15 Sur 0 -- -- 49
2019-09-28 14:00:00 18.4 3 Sudeste 12 Sur 0 -- -- 56
2019-09-28 13:00:00 16.7 4 Sudeste 11 Sudeste 0 -- -- 65
2019-09-28 12:00:00 14.6 3 Sudeste 8 Sudeste 0 -- -- 75
2019-09-28 11:00:00 12.3 3 Oeste 6 Oeste 0 -- -- 89
2019-09-28 10:00:00 11.1 6 Este 10 Este 0 -- -- 94
2019-09-28 09:00:00 10.5 5 Este 12 Nordeste 0 -- -- 96
2019-09-28 08:00:00 10 6 Nordeste 13 Nordeste 0 -- -- 95
2019-09-28 07:00:00 7.6 3 Nordeste 8 Noroeste 0 -- -- 95
2019-09-28 06:00:00 6.5 6 Norte 12 Norte 0 -- -- 92
2019-09-28 05:00:00 7.1 8 Norte 15 Norte 0 -- -- 92
2019-09-28 04:00:00 7.8 4 Norte 9 Noroeste 0 -- -- 90
2019-09-28 03:00:00 9 2 Norte 16 Noroeste 0 -- -- 90
2019-09-28 02:00:00 10.6 10 Noroeste 15 Noroeste 0 -- -- 89
2019-09-28 01:00:00 11.7 8 Noroeste 25 Noroeste 0 -- -- 85
2019-09-28 00:00:00 12.7 18 Oeste 28 Oeste 0 -- -- 81
2019-09-27 23:00:00 13 12 Oeste 21 Oeste 0 -- -- 78
2019-09-27 22:00:00 14.2 14 Oeste 24 Oeste 0 -- -- 73
2019-09-27 21:00:00 15.5 17 Oeste 30 Oeste 0 -- -- 67
2019-09-27 20:00:00 17.7 18 Oeste 32 Oeste 0 -- -- 59
2019-09-27 19:00:00 19.2 22 Oeste 41 Oeste 0 -- -- 57
2019-09-27 18:00:00 20.3 24 Oeste 40 Oeste 0 -- -- 54
2019-09-27 17:00:00 21.2 24 Oeste 42 Oeste 0 -- -- 52
2019-09-27 16:00:00 20.1 27 Oeste 39 Noroeste 0 -- -- 61
2019-09-27 15:00:00 21.3 19 Oeste 32 Noroeste 0 -- -- 56
2019-09-27 14:00:00 20.2 18 Oeste 31 Oeste 0 -- -- 59
2019-09-27 13:00:00 20.5 15 Noroeste 28 Oeste 0 -- -- 58
2019-09-27 12:00:00 19.5 14 Oeste 26 Noroeste 0 -- -- 60
2019-09-27 11:00:00 17 16 Oeste 23 Oeste 0 -- -- 69
2019-09-27 10:00:00 13.1 0 Calma 13 Noroeste 0 -- -- 79
2019-09-27 09:00:00 9.8 7 Noroeste 17 Noroeste 0 -- -- 89
2019-09-27 08:00:00 9.2 9 Noroeste 22 Noroeste 0 -- -- 90
2019-09-27 07:00:00 9.8 15 Noroeste 30 Noroeste 0 -- -- 89
2019-09-27 06:00:00 10.6 18 Oeste 31 Oeste 0 -- -- 86
2019-09-27 05:00:00 11 19 Noroeste 35 Noroeste 0 -- -- 86
2019-09-27 04:00:00 10.9 15 Noroeste 27 Noroeste 0 -- -- 87
2019-09-27 03:00:00 11.7 13 Noroeste 21 Noroeste 0 -- -- 84
2019-09-27 02:00:00 12.4 16 Noroeste 22 Noroeste 0 -- -- 80
2019-09-27 01:00:00 12.9 11 Noroeste 23 Oeste 0 -- -- 74
2019-09-27 00:00:00 13.9 12 Noroeste 17 Noroeste 0 -- -- 67
2019-09-26 23:00:00 13.9 9 Noroeste 17 Noroeste 0 -- -- 63
2019-09-26 22:00:00 13.7 7 Noroeste 14 Oeste 0 -- -- 66
2019-09-26 21:00:00 16.4 10 Oeste 14 Oeste 0 -- -- 53
2019-09-26 20:00:00 20.6 10 Oeste 26 Oeste 0 -- -- 40
2019-09-26 19:00:00 23.2 17 Oeste 30 Oeste 0 -- -- 29
2019-09-26 18:00:00 24.8 20 Oeste 31 Oeste 0 -- -- 21
2019-09-26 17:00:00 24.6 9 Sur 23 Sudoeste 0 -- -- 35
2019-09-26 16:00:00 23.7 8 Sudoeste 17 Sudoeste 0 -- -- 36
2019-09-26 15:00:00 22.1 7 Sur 16 Sur 0 -- -- 43
2019-09-26 14:00:00 20.4 7 Sur 14 Sur 0 -- -- 46
2019-09-26 13:00:00 18.2 5 Sur 14 Sur 0 -- -- 58
2019-09-26 12:00:00 16.5 6 Sudoeste 14 Oeste 0 -- -- 67
2019-09-26 11:00:00 14.3 9 Noroeste 14 Noroeste 0 -- -- 75
2019-09-26 10:00:00 11.5 9 Noroeste 13 Noroeste 0 -- -- 88
2019-09-26 09:00:00 8.9 5 Noroeste 17 Noroeste 0 -- -- 93
2019-09-26 08:00:00 8.8 12 Noroeste 18 Noroeste 0 -- -- 93
2019-09-26 07:00:00 8.9 5 Noroeste 15 Noroeste 0 -- -- 90
2019-09-26 06:00:00 10.2 11 Noroeste 20 Noroeste 0 -- -- 88
2019-09-26 05:00:00 10.8 10 Oeste 25 Noroeste 0 -- -- 87
2019-09-26 04:00:00 11.3 17 Noroeste 26 Noroeste 0 -- -- 86
2019-09-26 03:00:00 11.5 13 Noroeste 26 Oeste 0 -- -- 84
2019-09-26 02:00:00 11.8 15 Noroeste 25 Noroeste 0 -- -- 82
2019-09-26 01:00:00 12.2 12 Noroeste 21 Noroeste 0 -- -- 81
2019-09-26 00:00:00 12.7 12 Oeste 23 Noroeste 0 -- -- 79
2019-09-25 23:00:00 13.3 10 Noroeste 21 Noroeste 0 -- -- 77
2019-09-25 22:00:00 14.1 13 Oeste 21 Oeste 0 -- -- 74
2019-09-25 21:00:00 15.3 10 Oeste 18 Oeste 0 -- -- 68
2019-09-25 20:00:00 18.1 5 Oeste 22 Oeste 0 -- -- 58
2019-09-25 19:00:00 19.5 14 Oeste 23 Noroeste 0 -- -- 52
2019-09-25 18:00:00 20.3 13 Oeste 25 Oeste 0 -- -- 50
2019-09-25 17:00:00 20.2 19 Oeste 29 Oeste 0 -- -- 50
2019-09-25 16:00:00 19.7 14 Noroeste 22 Oeste 0 -- -- 51
2019-09-25 15:00:00 18.5 17 Oeste 30 Oeste 0 -- -- 55
2019-09-25 14:00:00 18.2 15 Oeste 26 Oeste 0 -- -- 55
2019-09-25 13:00:00 17.2 12 Oeste 22 Oeste 0 -- -- 57
2019-09-25 12:00:00 15.7 11 Oeste 22 Noroeste 0 -- -- 61
2019-09-25 11:00:00 14 14 Noroeste 27 Noroeste 0 -- -- 69
2019-09-25 10:00:00 12.3 17 Oeste 25 Oeste 0 -- -- 79
2019-09-25 09:00:00 10.2 15 Noroeste 23 Oeste 0 -- -- 86
2019-09-25 08:00:00 9.5 10 Sudoeste 19 Oeste 0 -- -- 87
2019-09-25 07:00:00 10.1 6 Oeste 23 Oeste 0 -- -- 84
2019-09-25 06:00:00 10.1 4 Oeste 26 Oeste 0 -- -- 84
2019-09-25 05:00:00 10 13 Oeste 30 Noroeste 0 -- -- 84
2019-09-25 04:00:00 9.8 14 Oeste 21 Oeste 0 -- -- 82
2019-09-25 03:00:00 10.4 10 Oeste 23 Oeste 0 -- -- 80
2019-09-25 02:00:00 10.2 13 Oeste 21 Oeste 0 -- -- 82
2019-09-25 01:00:00 11.4 7 Oeste 26 Oeste 0 -- -- 74
2019-09-25 00:00:00 12 15 Oeste 30 Oeste 0 -- -- 70
2019-09-24 23:00:00 13.3 18 Oeste 38 Noroeste 0 -- -- 65
2019-09-24 22:00:00 14.1 25 Oeste 40 Oeste 0 -- -- 65
2019-09-24 21:00:00 15.3 19 Noroeste 37 Oeste 0 -- -- 65
2019-09-24 20:00:00 17.5 26 Oeste 46 Oeste 0 -- -- 51
2019-09-24 19:00:00 19.2 31 Oeste 53 Oeste 0 -- -- 48
2019-09-24 18:00:00 20.3 28 Oeste 46 Noroeste 0 -- -- 51
2019-09-24 17:00:00 22.1 24 Oeste 41 Noroeste 0 -- -- 49
2019-09-24 16:00:00 22 17 Oeste 27 Oeste 0 -- -- 51
2019-09-24 15:00:00 20.1 8 Oeste 22 Sudoeste 0 -- -- 63
2019-09-24 14:00:00 20.1 4 Sur 17 Sudoeste 0 -- -- 63
2019-09-24 13:00:00 19.7 5 Sur 15 Sudeste 0 -- -- 65
2019-09-24 12:00:00 17.4 9 Sudoeste 18 Sur 0 -- -- 74
2019-09-24 11:00:00 15.7 11 Sur 18 Sur 0 -- -- 80
2019-09-24 10:00:00 13.6 9 Sur 14 Sur 0 -- -- 89
2019-09-24 09:00:00 12.5 4 Sudeste 8 Sudeste 0 -- -- 91
2019-09-24 08:00:00 11.8 3 Sudeste 8 Este 0 -- -- 91
2019-09-24 07:00:00 11.5 0 Calma 3 Sur 0 -- -- 91
2019-09-24 06:00:00 10.9 5 Sudeste 9 Sudeste 0 -- -- 91
2019-09-24 05:00:00 10.5 4 Este 5 Este 0 -- -- 90
2019-09-24 04:00:00 10.8 2 Norte 7 Noroeste 0 -- -- 89
2019-09-24 03:00:00 11.1 3 Sudeste 13 Sudoeste 0 -- -- 87
2019-09-24 02:00:00 11.1 6 Sudeste 10 Sur 0 -- -- 89
2019-09-24 01:00:00 11.4 3 Sudoeste 8 Sudoeste 0 -- -- 90
2019-09-24 00:00:00 11.6 6 Sur 8 Sur 0 -- -- 89
2019-09-23 23:00:00 13 4 Sudoeste 6 Sudoeste 0 -- -- 83
2019-09-23 22:00:00 14.7 6 Sudeste 8 Sur 0 -- -- 75
2019-09-23 21:00:00 16.7 7 Sur 13 Sur 0 -- -- 68
2019-09-23 20:00:00 19.1 0 Calma 8 Sur 0 -- -- 59
2019-09-23 19:00:00 19.9 6 Sur 14 Sur 0 -- -- 55
2019-09-23 18:00:00 19.8 3 Nordeste 10 Norte 0 -- -- 54
2019-09-23 17:00:00 19.5 5 Sur 17 Sur 0 -- -- 52
2019-09-23 16:00:00 18.6 6 Sudeste 13 Sur 0 -- -- 56
2019-09-23 15:00:00 17.6 4 Sur 17 Sur 0 -- -- 55
2019-09-23 14:00:00 16.8 9 Sudeste 18 Este 0 -- -- 61
2019-09-23 13:00:00 14.9 4 Sudeste 12 Este 0 -- -- 70
2019-09-23 12:00:00 13.6 6 Sudeste 10 Este 0 -- -- 77
2019-09-23 11:00:00 12.1 0 Calma 8 Sudeste 0 -- -- 88
2019-09-23 10:00:00 10.2 4 Sudeste 5 Sudeste 0 -- -- 94
2019-09-23 09:00:00 9 0 Calma 7 Este 0 -- -- 95
2019-09-23 08:00:00 7.9 0 Calma 6 Sudeste 0 -- -- 95
2019-09-23 07:00:00 7.5 2 Noroeste 5 Noroeste 0 -- -- 94
2019-09-23 06:00:00 7.9 2 Noroeste 3 Noroeste 0 -- -- 93
2019-09-23 05:00:00 8.3 0 Calma 5 Noroeste 0 -- -- 92
2019-09-23 04:00:00 8.3 4 Noroeste 6 Noroeste 0 -- -- 92
2019-09-23 03:00:00 8.8 0 Calma 4 Oeste 0 -- -- 91
2019-09-23 02:00:00 9.3 3 Oeste 4 Oeste 0 -- -- 89
2019-09-23 01:00:00 9.4 0 Calma 5 Noroeste 0 -- -- 88
2019-09-23 00:00:00 10 4 Noroeste 4 Oeste 0 -- -- 86
2019-09-22 23:00:00 11 0 Calma 7 Oeste 0 -- -- 80
2019-09-22 22:00:00 12.2 4 Oeste 12 Oeste 0 -- -- 75
2019-09-22 21:00:00 14.2 0 Calma 12 Noroeste 0 -- -- 71
2019-09-22 20:00:00 17.1 8 Noroeste 20 Oeste 0 -- -- 52
2019-09-22 19:00:00 19.1 13 Oeste 22 Noroeste 0 -- -- 43
2019-09-22 18:00:00 19 11 Noroeste 28 Oeste 0 -- -- 42
2019-09-22 17:00:00 19 6 Oeste 25 Oeste 0 -- -- 43
2019-09-22 16:00:00 17.7 6 Oeste 21 Oeste 0 -- -- 49
2019-09-22 15:00:00 16.8 4 Oeste 14 Oeste 0 -- -- 55
2019-09-22 14:00:00 15.9 10 Oeste 20 Sudoeste 0 -- -- 59
2019-09-22 13:00:00 16.1 9 Sudoeste 18 Oeste 0 -- -- 59
2019-09-22 12:00:00 14.5 10 Oeste 18 Oeste 0 -- -- 67
2019-09-22 11:00:00 12.3 5 Sudoeste 13 Oeste 0 -- -- 92
2019-09-22 10:00:00 10.2 2 Sudeste 6 Sudeste 0 -- -- 97
2019-09-22 09:00:00 8.9 2 Nordeste 6 Norte 0 -- -- 96
2019-09-22 08:00:00 8.9 4 Sudeste 7 Sudeste 0 -- -- 96
2019-09-22 07:00:00 9.3 0 Calma 4 Sudeste 0 -- -- 96
2019-09-22 06:00:00 9.2 4 Sur 10 Sur 0 -- -- 95
2019-09-22 05:00:00 8.9 6 Sur 9 Sudoeste 0 -- -- 93
2019-09-22 04:00:00 9.3 9 Sur 12 Sur 0 -- -- 92
2019-09-22 03:00:00 10.6 9 Oeste 15 Oeste 0 -- -- 89
2019-09-22 02:00:00 11.4 8 Noroeste 18 Noroeste 0 -- -- 91
2019-09-22 01:00:00 11.9 11 Noroeste 26 Noroeste 1 -- -- 93
2019-09-22 00:00:00 14.9 21 Sur 40 Sur 0 -- -- 95
2019-09-21 23:00:00 14.9 23 Sur 39 Sur 0 -- -- 94
2019-09-21 22:00:00 15.1 18 Sur 32 Sur 0.2 -- -- 94
2019-09-21 21:00:00 15.2 14 Sur 34 Sur 0 -- -- 93
2019-09-21 20:00:00 15.5 17 Sur 32 Sur 0.4 -- -- 93
2019-09-21 19:00:00 15.7 18 Sur 28 Sudeste 0.2 -- -- 94
2019-09-21 18:00:00 15.7 10 Sudeste 30 Sur 0.4 -- -- 93
2019-09-21 17:00:00 16.1 23 Sur 36 Sur 0.2 -- -- 92
2019-09-21 16:00:00 15.7 12 Sur 23 Sur 0 -- -- 92
2019-09-21 15:00:00 15.6 15 Sur 30 Sur 0 -- -- 90
2019-09-21 14:00:00 15.2 17 Sudeste 29 Sudeste 0 -- -- 91
2019-09-21 13:00:00 14.7 17 Sudeste 22 Sudeste 0.4 -- -- 91
2019-09-21 12:00:00 15 13 Sudeste 23 Sudeste 0.6 -- -- 89
2019-09-21 11:00:00 15 12 Sur 19 Sudeste 0.6 -- -- 88
2019-09-21 10:00:00 15.1 12 Sudeste 20 Sudeste 0 -- -- 83
2019-09-21 09:00:00 14 9 Sudeste 14 Sudeste 0 -- -- 86
2019-09-21 08:00:00 13.4 6 Sudeste 13 Sudeste 0 -- -- 87
2019-09-21 07:00:00 13.3 6 Sudeste 12 Sudeste 0 -- -- 83
2019-09-21 06:00:00 14.2 9 Sur 19 Sur 0 -- -- 79
2019-09-21 05:00:00 15.3 7 Sur 10 Sur 0 -- -- 81
2019-09-21 04:00:00 15.6 6 Sudeste 12 Este 0 -- -- 85
2019-09-21 03:00:00 15.7 6 Sudeste 14 Este 0 -- -- 86
2019-09-21 02:00:00 16 8 Este 24 Este 0 -- -- 81
2019-09-21 01:00:00 16.6 18 Este 24 Este 0 -- -- 78
2019-09-21 00:00:00 16.7 7 Este 14 Este 0 -- -- 78
2019-09-20 23:00:00 17.9 9 Este 23 Sudeste 0 -- -- 72
2019-09-20 22:00:00 19.1 15 Sudeste 21 Sudeste 0 -- -- 63
2019-09-20 21:00:00 19.8 7 Sur 12 Sudeste 0 -- -- 58
2019-09-20 20:00:00 22.3 7 Sur 17 Sur 0 -- -- 47
2019-09-20 19:00:00 23.3 8 Sur 17 Sur 0 -- -- 47
2019-09-20 18:00:00 23.5 8 Sur 23 Sudeste 0 -- -- 47
2019-09-20 17:00:00 23.4 12 Sudeste 26 Sudeste 0 -- -- 49
2019-09-20 16:00:00 24.4 9 Sudeste 20 Sudeste 0 -- -- 51
2019-09-20 15:00:00 23.2 8 Este 18 Sudeste 0 -- -- 58
2019-09-20 14:00:00 22.7 11 Sudeste 22 Este 0 -- -- 58
2019-09-20 13:00:00 21 11 Sudeste 23 Este 0 -- -- 65
2019-09-20 12:00:00 19.9 13 Este 22 Este 0 -- -- 67
2019-09-20 11:00:00 18.9 10 Este 24 Este 0 -- -- 72
2019-09-20 10:00:00 15.2 2 Norte 7 Noroeste 0 -- -- 93
2019-09-20 09:00:00 12.1 5 Norte 10 Norte 0 -- -- 94
2019-09-20 08:00:00 11.2 7 Noroeste 12 Noroeste 0 -- -- 93
2019-09-20 07:00:00 11.3 7 Noroeste 11 Noroeste 0 -- -- 93
2019-09-20 06:00:00 11.6 7 Noroeste 12 Noroeste 0 -- -- 92
2019-09-20 05:00:00 12 8 Noroeste 11 Noroeste 0 -- -- 92
2019-09-20 04:00:00 12.1 6 Noroeste 10 Noroeste 0 -- -- 91
2019-09-20 03:00:00 12.9 6 Norte 9 Norte 0 -- -- 89
2019-09-20 02:00:00 14 5 Nordeste 10 Norte 0 -- -- 86
2019-09-20 01:00:00 13.4 6 Norte 9 Norte 0 -- -- 88
2019-09-20 00:00:00 13.9 6 Norte 8 Norte 0 -- -- 87
2019-09-19 23:00:00 15.6 5 Norte 12 Norte 0 -- -- 82
2019-09-19 22:00:00 16.7 6 Norte 8 Norte 0 -- -- 81
2019-09-19 21:00:00 19.8 3 Nordeste 5 Este 0 -- -- 67
2019-09-19 20:00:00 22.4 3 Este 8 Sudeste 0 -- -- 55
2019-09-19 19:00:00 24.3 5 Sudeste 12 Sudeste 0 -- -- 46
2019-09-19 18:00:00 24.9 7 Sudeste 15 Sur 0 -- -- 44
2019-09-19 17:00:00 25 7 Sudeste 18 Sur 0 -- -- 44
2019-09-19 16:00:00 24.2 12 Este 22 Sudeste 0 -- -- 47
2019-09-19 15:00:00 24 6 Sudeste 18 Este 0 -- -- 47
2019-09-19 14:00:00 23.1 6 Sudeste 14 Sudeste 0 -- -- 44
2019-09-19 13:00:00 22.2 7 Sudeste 12 Sudeste 0 -- -- 45
2019-09-19 12:00:00 20.8 4 Sudeste 10 Sudeste 0 -- -- 47
2019-09-19 11:00:00 18.6 2 Norte 8 Noroeste 0 -- -- 58
2019-09-19 10:00:00 15 5 Noroeste 10 Noroeste 0 -- -- 90
2019-09-19 09:00:00 12.1 6 Noroeste 9 Noroeste 0 -- -- 94
2019-09-19 08:00:00 11.5 6 Noroeste 9 Norte 0 -- -- 94
2019-09-19 07:00:00 11.9 6 Noroeste 9 Noroeste 0 -- -- 94
2019-09-19 06:00:00 12.3 6 Norte 8 Noroeste 0 -- -- 93
2019-09-19 05:00:00 12.9 6 Noroeste 9 Noroeste 0 -- -- 93
2019-09-19 04:00:00 13.4 6 Noroeste 8 Noroeste 0 -- -- 92
2019-09-19 03:00:00 14.3 6 Noroeste 9 Noroeste 0 -- -- 90
2019-09-19 02:00:00 16 4 Nordeste 11 Nordeste 0 -- -- 86
2019-09-19 01:00:00 16.8 9 Nordeste 19 Nordeste 0 -- -- 83
2019-09-19 00:00:00 17.9 10 Nordeste 17 Nordeste 0 -- -- 81
2019-09-18 23:00:00 18 0 Calma 9 Norte 0 -- -- 82
2019-09-18 22:00:00 19.4 6 Noroeste 14 Noroeste 0 -- -- 73
2019-09-18 21:00:00 20.5 3 Sur 6 Sudeste 0 -- -- 71
2019-09-18 20:00:00 22.4 4 Sur 10 Sur 0 -- -- 60
2019-09-18 19:00:00 24.6 2 Oeste 6 Sudeste 0 -- -- 46
2019-09-18 18:00:00 24.1 6 Este 10 Este 0 -- -- 49
2019-09-18 17:00:00 24.2 4 Sudeste 9 Este 0 -- -- 47
2019-09-18 16:00:00 23.4 4 Nordeste 9 Nordeste 0 -- -- 48
2019-09-18 15:00:00 22.7 3 Este 14 Este 0 -- -- 50
2019-09-18 14:00:00 22 6 Este 10 Nordeste 0 -- -- 53
2019-09-18 13:00:00 20.7 3 Este 9 Noroeste 0 -- -- 61
2019-09-18 12:00:00 18.1 4 Norte 13 Norte 0 -- -- 75
2019-09-18 11:00:00 14.8 6 Norte 11 Norte 0 -- -- 91
2019-09-18 10:00:00 13.6 3 Noroeste 9 Noroeste 0 -- -- 94
2019-09-18 09:00:00 12.4 4 Noroeste 9 Norte 0 -- -- 96
2019-09-18 08:00:00 11.9 6 Oeste 14 Noroeste 0 -- -- 95
2019-09-18 07:00:00 11.9 8 Noroeste 10 Noroeste 0 -- -- 95
2019-09-18 06:00:00 12.4 3 Oeste 9 Oeste 0 -- -- 94
2019-09-18 05:00:00 13.1 2 Oeste 7 Sudoeste 0 -- -- 94
2019-09-18 04:00:00 13.5 3 Oeste 8 Este 0 -- -- 93
2019-09-18 03:00:00 14.3 5 Este 12 Este 0.2 -- -- 92
2019-09-18 02:00:00 14.3 6 Norte 14 Norte 2.8 -- -- 92
2019-09-18 01:00:00 14.4 8 Este 21 Sudeste 6.8 -- -- 90
2019-09-18 00:00:00 15.3 8 Norte 22 Norte 1.6 -- -- 88